Time;durP1;ratioP1;P1;durP2;ratioP2;P2;SDS_P1;SDS_P2;PMS_P1;PMS_P2;Temp;Humidity;BMP_temperature;BMP_pressure;BME280_temperature;BME280_humidity;BME280_pressure;Samples;Min_cycle;Max_cycle;Signal;HPM_P1;HPM_P2
2023/11/26 00:00:17;;;;;;;2.55;1.60;;;;;;;;;;5081771;28;20384;-78
2023/11/26 00:02:44;;;;;;;2.13;1.60;;;;;;;;;;5082580;28;20415;-79
2023/11/26 00:05:10;;;;;;;1.70;1.60;;;;;;;;;;5083189;28;20383;-79
2023/11/26 00:07:36;;;;;;;1.60;1.30;;;;;;;;;;5082707;28;20417;-78
2023/11/26 00:10:02;;;;;;;1.53;1.43;;;;;;;;;;5082193;28;20429;-79
2023/11/26 00:12:28;;;;;;;1.42;1.30;;;;;;;;;;5082429;28;20376;-78
2023/11/26 00:14:54;;;;;;;1.63;1.50;;;;;;;;;;5082130;28;20495;-79
2023/11/26 00:17:20;;;;;;;1.75;1.40;;;;;;;;;;5079423;28;20383;-78
2023/11/26 00:19:46;;;;;;;1.42;1.23;;;;;;;;;;5081279;28;20386;-78
2023/11/26 00:22:12;;;;;;;1.63;1.30;;;;;;;;;;5082178;28;20410;-78
2023/11/26 00:24:38;;;;;;;1.95;1.42;;;;;;;;;;5080445;28;20396;-78
2023/11/26 00:27:04;;;;;;;1.40;1.30;;;;;;;;;;5079798;28;20407;-78
2023/11/26 00:29:40;;;;;;;1.77;1.40;;;;;;;;;;5082261;28;20387;-78
2023/11/26 00:32:06;;;;;;;1.40;1.27;;;;;;;;;;5082707;28;20400;-78
2023/11/26 00:34:32;;;;;;;1.42;1.33;;;;;;;;;;5082890;28;20372;-79
2023/11/26 00:36:58;;;;;;;1.50;1.30;;;;;;;;;;5081996;28;20384;-78
2023/11/26 00:39:24;;;;;;;3.60;1.55;;;;;;;;;;5082517;28;20395;-79
2023/11/26 00:41:50;;;;;;;2.65;1.50;;;;;;;;;;5081705;28;20478;-79
2023/11/26 00:44:16;;;;;;;1.73;1.58;;;;;;;;;;5082497;28;20395;-79
2023/11/26 00:46:42;;;;;;;1.50;1.40;;;;;;;;;;5082425;28;20431;-79
2023/11/26 00:49:08;;;;;;;1.50;1.30;;;;;;;;;;5082872;28;20746;-79
2023/11/26 00:51:34;;;;;;;1.40;1.10;;;;;;;;;;5082653;28;20414;-79
2023/11/26 00:54:00;;;;;;;1.70;1.23;;;;;;;;;;5082577;28;20418;-79
2023/11/26 00:56:26;;;;;;;1.45;1.27;;;;;;;;;;5079082;28;20761;-79
2023/11/26 00:58:52;;;;;;;1.70;1.55;;;;;;;;;;5070359;28;20394;-79
2023/11/26 01:01:18;;;;;;;2.20;1.60;;;;;;;;;;5082681;28;20780;-79
2023/11/26 01:03:44;;;;;;;1.67;1.58;;;;;;;;;;5082461;28;20402;-79
2023/11/26 01:06:10;;;;;;;1.70;1.60;;;;;;;;;;5082343;28;20384;-79
2023/11/26 01:08:36;;;;;;;1.88;1.77;;;;;;;;;;5081763;28;20388;-79
2023/11/26 01:11:06;;;;;;;1.95;1.50;;;;;;;;;;5080799;28;20380;-79
2023/11/26 01:13:32;;;;;;;1.75;1.35;;;;;;;;;;5081281;28;20454;-78
2023/11/26 01:15:58;;;;;;;1.65;1.55;;;;;;;;;;5081043;28;20375;-78
2023/11/26 01:18:24;;;;;;;1.80;1.70;;;;;;;;;;5080900;28;20453;-79
2023/11/26 01:20:50;;;;;;;2.45;1.52;;;;;;;;;;5081563;28;20710;-78
2023/11/26 01:23:16;;;;;;;2.00;1.70;;;;;;;;;;5082389;28;20407;-79
2023/11/26 01:25:42;;;;;;;1.92;1.83;;;;;;;;;;5081724;28;20368;-79
2023/11/26 01:28:08;;;;;;;4.00;2.00;;;;;;;;;;5081494;28;20494;-79
2023/11/26 01:30:34;;;;;;;2.20;1.80;;;;;;;;;;5082079;28;20390;-79
2023/11/26 01:33:00;;;;;;;2.28;2.08;;;;;;;;;;5082165;28;20398;-79
2023/11/26 01:35:26;;;;;;;2.17;1.97;;;;;;;;;;5081744;28;20450;-79
2023/11/26 01:37:52;;;;;;;2.13;1.80;;;;;;;;;;5082709;28;20391;-79
2023/11/26 01:40:18;;;;;;;3.33;2.30;;;;;;;;;;5081963;28;20383;-79
2023/11/26 01:42:44;;;;;;;4.65;1.95;;;;;;;;;;5082459;28;20902;-79
2023/11/26 01:45:11;;;;;;;3.63;2.03;;;;;;;;;;5082889;28;20376;-79
2023/11/26 01:47:38;;;;;;;2.55;2.00;;;;;;;;;;5081469;28;20426;-79
2023/11/26 01:50:05;;;;;;;2.25;1.80;;;;;;;;;;5081999;28;20391;-79
2023/11/26 01:52:31;;;;;;;2.83;2.10;;;;;;;;;;5082119;28;20372;-79
2023/11/26 01:54:57;;;;;;;2.78;1.90;;;;;;;;;;5084706;28;20380;-79
2023/11/26 01:57:23;;;;;;;2.97;2.00;;;;;;;;;;5085075;28;20783;-79
2023/11/26 01:59:49;;;;;;;2.35;1.90;;;;;;;;;;5084372;28;20375;-79
2023/11/26 02:02:15;;;;;;;1.87;1.60;;;;;;;;;;5085547;28;20392;-79
2023/11/26 02:04:42;;;;;;;2.83;1.88;;;;;;;;;;5084928;28;20395;-79
2023/11/26 02:07:08;;;;;;;2.00;1.75;;;;;;;;;;5084707;28;20407;-79
2023/11/26 02:09:34;;;;;;;3.03;1.92;;;;;;;;;;5085475;28;20396;-79
2023/11/26 02:12:00;;;;;;;2.63;2.30;;;;;;;;;;5085339;28;20445;-79
2023/11/26 02:14:26;;;;;;;3.60;2.03;;;;;;;;;;5085029;28;20368;-79
2023/11/26 02:16:53;;;;;;;2.97;2.10;;;;;;;;;;5085230;28;20379;-79
2023/11/26 02:19:31;;;;;;;3.00;2.10;;;;;;;;;;5085389;28;20422;-79
2023/11/26 02:21:57;;;;;;;3.95;2.08;;;;;;;;;;5085278;28;20405;-79
2023/11/26 02:24:29;;;;;;;2.75;1.70;;;;;;;;;;5084794;28;20441;-79
2023/11/26 02:26:55;;;;;;;1.92;1.73;;;;;;;;;;5084067;28;20491;-78
2023/11/26 02:29:22;;;;;;;3.00;1.77;;;;;;;;;;5084836;28;20376;-78
2023/11/26 02:31:48;;;;;;;2.10;1.67;;;;;;;;;;5084769;28;20419;-79
2023/11/26 02:34:14;;;;;;;1.73;1.63;;;;;;;;;;5084692;28;20394;-79
2023/11/26 02:36:40;;;;;;;1.58;1.48;;;;;;;;;;5083116;28;20885;-79
2023/11/26 02:39:06;;;;;;;2.13;1.70;;;;;;;;;;5082149;28;20383;-79
2023/11/26 02:41:32;;;;;;;1.45;1.33;;;;;;;;;;5083974;28;20387;-79
2023/11/26 02:43:59;;;;;;;3.33;1.80;;;;;;;;;;5084964;28;20403;-79
2023/11/26 02:46:25;;;;;;;2.33;1.40;;;;;;;;;;5084170;28;20461;-79
2023/11/26 02:48:51;;;;;;;2.63;1.60;;;;;;;;;;5083767;28;20403;-79
2023/11/26 02:51:17;;;;;;;2.08;1.65;;;;;;;;;;5083799;28;20845;-78
2023/11/26 02:53:44;;;;;;;1.45;1.35;;;;;;;;;;5084369;28;20380;-78
2023/11/26 02:56:12;;;;;;;1.65;1.42;;;;;;;;;;5083783;28;20376;-79
2023/11/26 02:58:41;;;;;;;2.50;1.60;;;;;;;;;;5083981;28;20394;-79
2023/11/26 03:01:08;;;;;;;3.45;1.63;;;;;;;;;;5083925;28;20382;-79
2023/11/26 03:03:34;;;;;;;2.15;1.80;;;;;;;;;;5081934;28;20436;-79
2023/11/26 03:06:00;;;;;;;1.90;1.50;;;;;;;;;;5081920;28;20387;-79
2023/11/26 03:08:32;;;;;;;3.03;1.40;;;;;;;;;;5083383;28;20891;-79
2023/11/26 03:13:43;;;;;;;2.03;1.60;;;;;;;;;;5083952;28;20374;-79
2023/11/26 03:16:12;;;;;;;2.17;1.60;;;;;;;;;;5065540;28;20520;-79
2023/11/26 03:18:38;;;;;;;2.28;1.60;;;;;;;;;;5083527;28;20476;-79
2023/11/26 03:21:05;;;;;;;2.42;1.50;;;;;;;;;;5084189;28;20372;-79
2023/11/26 03:23:32;;;;;;;2.60;1.58;;;;;;;;;;5084408;28;20434;-79
2023/11/26 03:25:58;;;;;;;1.52;1.27;;;;;;;;;;5083871;28;20383;-79
2023/11/26 03:28:24;;;;;;;1.88;1.25;;;;;;;;;;5084477;28;20404;-79
2023/11/26 03:30:56;;;;;;;1.65;1.50;;;;;;;;;;5083726;28;20386;-79
2023/11/26 03:33:22;;;;;;;1.90;1.70;;;;;;;;;;5083713;28;20384;-79
2023/11/26 03:35:50;;;;;;;2.67;1.60;;;;;;;;;;5083547;28;20459;-79
2023/11/26 03:38:17;;;;;;;1.63;1.50;;;;;;;;;;5082847;28;20737;-79
2023/11/26 03:40:43;;;;;;;1.90;1.70;;;;;;;;;;5083211;28;20835;-78
2023/11/26 03:43:10;;;;;;;1.98;1.60;;;;;;;;;;5083316;28;20845;-79
2023/11/26 03:45:36;;;;;;;1.73;1.60;;;;;;;;;;5083791;28;20376;-79
2023/11/26 03:48:03;;;;;;;3.72;1.70;;;;;;;;;;5082870;28;20434;-79
2023/11/26 03:50:29;;;;;;;2.93;1.60;;;;;;;;;;5083002;28;20999;-79
2023/11/26 03:52:55;;;;;;;2.30;1.90;;;;;;;;;;5083365;28;20379;-79
2023/11/26 03:55:22;;;;;;;2.45;1.77;;;;;;;;;;5082821;28;20372;-79
2023/11/26 03:57:48;;;;;;;3.08;1.90;;;;;;;;;;5083305;28;20391;-79
2023/11/26 04:00:14;;;;;;;4.30;1.90;;;;;;;;;;5083483;28;20380;-79
2023/11/26 04:02:40;;;;;;;2.95;1.90;;;;;;;;;;5082715;28;20915;-79
2023/11/26 04:05:07;;;;;;;3.03;2.10;;;;;;;;;;5083133;28;20375;-79
2023/11/26 04:07:34;;;;;;;2.22;1.85;;;;;;;;;;5083239;28;20430;-79
2023/11/26 04:10:00;;;;;;;2.10;1.90;;;;;;;;;;5083367;28;20452;-78
2023/11/26 04:12:26;;;;;;;4.30;2.30;;;;;;;;;;5082991;28;20380;-79
2023/11/26 04:15:00;;;;;;;2.15;1.80;;;;;;;;;;5082790;28;20471;-79
2023/11/26 04:17:26;;;;;;;1.73;1.60;;;;;;;;;;5082230;28;20466;-79
2023/11/26 04:19:53;;;;;;;2.50;2.13;;;;;;;;;;5083000;28;20799;-79
2023/11/26 04:22:28;;;;;;;2.50;1.88;;;;;;;;;;5082656;28;20387;-79
2023/11/26 04:24:54;;;;;;;2.40;2.20;;;;;;;;;;5082039;28;20476;-79
2023/11/26 04:27:21;;;;;;;3.35;2.08;;;;;;;;;;5081894;28;20411;-79
2023/11/26 04:29:47;;;;;;;2.35;2.00;;;;;;;;;;5082225;28;20383;-79
2023/11/26 04:32:14;;;;;;;2.80;2.00;;;;;;;;;;5081040;28;20853;-78
2023/11/26 04:34:40;;;;;;;2.28;1.90;;;;;;;;;;5081320;28;20478;-78
2023/11/26 04:37:11;;;;;;;1.90;1.80;;;;;;;;;;5081769;28;20384;-78
2023/11/26 04:39:37;;;;;;;2.47;1.90;;;;;;;;;;5082212;28;20461;-79
2023/11/26 04:42:04;;;;;;;3.22;1.70;;;;;;;;;;5081263;28;20380;-78
2023/11/26 04:44:30;;;;;;;2.67;1.92;;;;;;;;;;5082177;28;20432;-78
2023/11/26 04:46:56;;;;;;;2.40;2.05;;;;;;;;;;5082026;28;20769;-79
2023/11/26 04:49:23;;;;;;;2.65;1.80;;;;;;;;;;5081553;28;20372;-78
2023/11/26 04:51:50;;;;;;;4.05;2.17;;;;;;;;;;5082134;28;20375;-79
2023/11/26 04:54:21;;;;;;;3.17;2.22;;;;;;;;;;5082697;28;20380;-79
2023/11/26 04:56:47;;;;;;;3.08;2.10;;;;;;;;;;5082527;28;20390;-79
2023/11/26 04:59:13;;;;;;;3.00;2.20;;;;;;;;;;5082431;28;20372;-79
2023/11/26 05:01:43;;;;;;;2.92;2.05;;;;;;;;;;5065676;28;20408;-79
2023/11/26 05:04:11;;;;;;;3.80;2.50;;;;;;;;;;5062241;28;20426;-79
2023/11/26 05:06:37;;;;;;;3.72;2.30;;;;;;;;;;5061819;28;20431;-79
2023/11/26 05:09:03;;;;;;;4.60;2.70;;;;;;;;;;5062239;28;20403;-79
2023/11/26 05:11:31;;;;;;;3.38;2.42;;;;;;;;;;5062187;28;20381;-79
2023/11/26 05:13:57;;;;;;;4.30;2.60;;;;;;;;;;5061762;28;20392;-79
2023/11/26 05:16:23;;;;;;;3.17;2.38;;;;;;;;;;5062489;28;20378;-79
2023/11/26 05:18:49;;;;;;;5.63;2.60;;;;;;;;;;5061799;28;20401;-79
2023/11/26 05:21:15;;;;;;;2.70;2.30;;;;;;;;;;5062191;28;20411;-78
2023/11/26 05:23:41;;;;;;;3.53;2.50;;;;;;;;;;5061742;28;20392;-78
2023/11/26 05:26:07;;;;;;;4.18;2.05;;;;;;;;;;5061846;28;20739;-78
2023/11/26 05:28:34;;;;;;;3.72;2.10;;;;;;;;;;5062175;28;20380;-79
2023/11/26 05:30:59;;;;;;;3.70;2.08;;;;;;;;;;5066029;28;20376;-79
2023/11/26 05:33:25;;;;;;;3.50;1.80;;;;;;;;;;5066032;28;20445;-79
2023/11/26 05:35:51;;;;;;;2.50;1.70;;;;;;;;;;5066388;28;20385;-79
2023/11/26 05:38:17;;;;;;;2.67;1.83;;;;;;;;;;5065568;28;20389;-79
2023/11/26 05:40:43;;;;;;;2.65;2.00;;;;;;;;;;5065247;28;20389;-79
2023/11/26 05:43:09;;;;;;;3.63;1.93;;;;;;;;;;5065560;28;20400;-79
2023/11/26 05:45:35;;;;;;;4.90;2.10;;;;;;;;;;5065694;28;20431;-79
2023/11/26 05:48:01;;;;;;;3.50;2.00;;;;;;;;;;5065613;28;20488;-79
2023/11/26 05:50:27;;;;;;;3.70;2.00;;;;;;;;;;5065138;28;20472;-79
2023/11/26 05:52:53;;;;;;;3.95;2.25;;;;;;;;;;5065295;28;20378;-79
2023/11/26 05:55:21;;;;;;;3.10;2.30;;;;;;;;;;5064902;28;20385;-79
2023/11/26 05:57:48;;;;;;;3.85;2.30;;;;;;;;;;5065192;28;20385;-79
2023/11/26 06:00:14;;;;;;;3.90;2.50;;;;;;;;;;5065190;28;20835;-79
2023/11/26 06:02:41;;;;;;;3.20;2.13;;;;;;;;;;5065638;28;20863;-79
2023/11/26 06:05:08;;;;;;;4.30;2.33;;;;;;;;;;5065226;28;20396;-79
2023/11/26 06:07:34;;;;;;;6.07;2.35;;;;;;;;;;5064512;28;20767;-78
2023/11/26 06:10:00;;;;;;;3.38;2.53;;;;;;;;;;5065389;28;20389;-78
2023/11/26 06:12:26;;;;;;;5.00;2.27;;;;;;;;;;5065568;28;20382;-78
2023/11/26 06:14:52;;;;;;;5.03;2.20;;;;;;;;;;5064743;28;20385;-79
2023/11/26 06:17:18;;;;;;;3.70;2.55;;;;;;;;;;5065535;28;20389;-79
2023/11/26 06:19:44;;;;;;;5.03;2.75;;;;;;;;;;5065599;28;20388;-79
2023/11/26 06:22:11;;;;;;;4.00;2.63;;;;;;;;;;5076879;28;20383;-79
2023/11/26 06:24:37;;;;;;;3.65;2.30;;;;;;;;;;5085547;28;20376;-79
2023/11/26 06:27:02;;;;;;;3.00;2.20;;;;;;;;;;5084883;28;20571;-79
2023/11/26 06:29:28;;;;;;;2.88;2.15;;;;;;;;;;5085016;28;20376;-79
2023/11/26 06:31:55;;;;;;;4.13;2.30;;;;;;;;;;5084669;28;20837;-79
2023/11/26 06:34:25;;;;;;;2.70;2.10;;;;;;;;;;5085412;28;20459;-79
2023/11/26 06:36:53;;;;;;;3.90;2.08;;;;;;;;;;5084882;28;20406;-79
2023/11/26 06:39:19;;;;;;;4.40;2.35;;;;;;;;;;5085038;28;20391;-79
2023/11/26 06:41:45;;;;;;;3.00;2.22;;;;;;;;;;5084622;28;20380;-79
2023/11/26 06:44:11;;;;;;;3.22;2.30;;;;;;;;;;5084857;28;20788;-79
2023/11/26 06:46:37;;;;;;;3.60;2.30;;;;;;;;;;5084474;28;20424;-79
2023/11/26 06:49:04;;;;;;;3.65;2.10;;;;;;;;;;5084805;28;20388;-79
2023/11/26 06:51:30;;;;;;;3.40;2.30;;;;;;;;;;5085003;28;20376;-79
2023/11/26 06:53:56;;;;;;;4.13;2.10;;;;;;;;;;5084812;28;20855;-79
2023/11/26 06:56:22;;;;;;;4.22;2.15;;;;;;;;;;5078527;28;20393;-79
2023/11/26 06:58:48;;;;;;;4.03;2.13;;;;;;;;;;5073431;28;20378;-79
2023/11/26 07:01:14;;;;;;;2.70;1.73;;;;;;;;;;5064816;28;20373;-79
2023/11/26 07:03:40;;;;;;;2.90;2.10;;;;;;;;;;5064108;28;20382;-79
2023/11/26 07:06:07;;;;;;;3.00;2.00;;;;;;;;;;5064416;28;20837;-79
2023/11/26 07:08:36;;;;;;;2.70;1.90;;;;;;;;;;5063501;28;20491;-79
2023/11/26 07:11:02;;;;;;;4.57;2.03;;;;;;;;;;5062977;28;20786;-79
2023/11/26 07:13:28;;;;;;;2.60;2.15;;;;;;;;;;5061984;28;20382;-79
2023/11/26 07:15:54;;;;;;;3.22;1.92;;;;;;;;;;5061174;28;20384;-79
2023/11/26 07:18:23;;;;;;;2.33;1.85;;;;;;;;;;5063130;28;20783;-79
2023/11/26 07:20:50;;;;;;;3.35;2.08;;;;;;;;;;5061169;28;20382;-80
2023/11/26 07:23:16;;;;;;;3.00;1.93;;;;;;;;;;5058203;28;20377;-80
2023/11/26 07:25:43;;;;;;;3.38;2.15;;;;;;;;;;5061240;28;20385;-79
2023/11/26 07:28:11;;;;;;;2.83;1.80;;;;;;;;;;5057232;28;20397;-80
2023/11/26 07:30:40;;;;;;;2.60;1.90;;;;;;;;;;5057226;28;20734;-80
2023/11/26 07:33:06;;;;;;;2.40;2.00;;;;;;;;;;5064281;28;20422;-79
2023/11/26 07:35:32;;;;;;;3.10;1.83;;;;;;;;;;5063912;28;20370;-79
2023/11/26 07:38:01;;;;;;;2.78;1.98;;;;;;;;;;5063225;28;20456;-79
2023/11/26 07:40:26;;;;;;;2.77;1.97;;;;;;;;;;5063877;28;20425;-79
2023/11/26 07:42:52;;;;;;;2.58;1.98;;;;;;;;;;5065920;28;20724;-79
2023/11/26 07:45:18;;;;;;;2.30;1.60;;;;;;;;;;5064545;28;20386;-79
2023/11/26 07:47:44;;;;;;;2.60;1.80;;;;;;;;;;5057610;28;20417;-78
2023/11/26 07:50:10;;;;;;;2.17;1.60;;;;;;;;;;5057803;28;20856;-78
2023/11/26 07:52:37;;;;;;;2.08;1.48;;;;;;;;;;5060456;28;20377;-79
2023/11/26 07:55:05;;;;;;;2.20;1.45;;;;;;;;;;5061304;28;20382;-78
2023/11/26 07:57:34;;;;;;;3.10;1.75;;;;;;;;;;5059072;28;20790;-79
2023/11/26 08:00:01;;;;;;;2.63;1.90;;;;;;;;;;5060426;28;20778;-78
2023/11/26 08:02:29;;;;;;;2.45;1.80;;;;;;;;;;5060306;28;20497;-78
2023/11/26 08:04:55;;;;;;;2.10;1.70;;;;;;;;;;5058750;28;20438;-79
2023/11/26 08:07:24;;;;;;;2.50;1.83;;;;;;;;;;5057531;28;20433;-80
2023/11/26 08:09:54;;;;;;;3.20;1.70;;;;;;;;;;5058974;28;20433;-79
2023/11/26 08:12:24;;;;;;;2.25;1.60;;;;;;;;;;5061719;28;20415;-79
2023/11/26 08:14:51;;;;;;;2.45;1.88;;;;;;;;;;5061611;28;20437;-79
2023/11/26 08:17:18;;;;;;;2.42;1.73;;;;;;;;;;5061757;28;20851;-79
2023/11/26 08:19:45;;;;;;;1.90;1.70;;;;;;;;;;5060958;28;20377;-79
2023/11/26 08:22:12;;;;;;;2.20;1.83;;;;;;;;;;5060892;28;20389;-79
2023/11/26 08:24:42;;;;;;;2.58;1.73;;;;;;;;;;5058656;28;20393;-79
2023/11/26 08:27:09;;;;;;;3.08;2.20;;;;;;;;;;5078147;28;20449;-79
2023/11/26 08:29:35;;;;;;;3.40;1.80;;;;;;;;;;5080793;28;20793;-78
2023/11/26 08:32:03;;;;;;;3.75;2.30;;;;;;;;;;5082183;28;20415;-78
2023/11/26 08:34:34;;;;;;;3.15;2.10;;;;;;;;;;5062002;28;20944;-79
2023/11/26 08:37:05;;;;;;;2.92;1.98;;;;;;;;;;5078649;28;20908;-79
2023/11/26 08:39:34;;;;;;;2.75;2.17;;;;;;;;;;5077289;28;20428;-78
2023/11/26 08:42:00;;;;;;;3.03;2.15;;;;;;;;;;5079050;28;20378;-79
2023/11/26 08:44:27;;;;;;;3.47;2.20;;;;;;;;;;5080544;28;20378;-79
2023/11/26 08:46:53;;;;;;;2.90;2.30;;;;;;;;;;5076009;28;20416;-78
2023/11/26 08:49:23;;;;;;;2.22;1.98;;;;;;;;;;5074726;28;20452;-78
2023/11/26 08:51:50;;;;;;;2.92;2.10;;;;;;;;;;5076884;28;20383;-79
2023/11/26 08:54:16;;;;;;;3.70;2.13;;;;;;;;;;5079473;28;20797;-79
2023/11/26 08:56:42;;;;;;;3.53;2.50;;;;;;;;;;5080375;28;20376;-80
2023/11/26 08:59:08;;;;;;;4.72;2.67;;;;;;;;;;5062335;28;20408;-78
2023/11/26 09:01:37;;;;;;;3.47;2.80;;;;;;;;;;5062896;28;20435;-80
2023/11/26 09:04:05;;;;;;;3.80;2.42;;;;;;;;;;5066031;28;20377;-79
2023/11/26 09:06:31;;;;;;;2.40;2.08;;;;;;;;;;5068732;28;20381;-79
2023/11/26 09:08:57;;;;;;;4.15;2.50;;;;;;;;;;5069625;28;20843;-79
2023/11/26 09:11:23;;;;;;;2.83;2.45;;;;;;;;;;5067970;28;20472;-79
2023/11/26 09:13:51;;;;;;;2.80;1.90;;;;;;;;;;5068086;28;20740;-79
2023/11/26 09:16:17;;;;;;;3.58;2.35;;;;;;;;;;5068905;28;20423;-79
2023/11/26 09:18:44;;;;;;;4.20;2.40;;;;;;;;;;5068445;28;20381;-79
2023/11/26 09:21:13;;;;;;;3.42;2.10;;;;;;;;;;5069408;28;20461;-79
2023/11/26 09:23:43;;;;;;;2.67;1.97;;;;;;;;;;5064137;28;20373;-79
2023/11/26 09:26:13;;;;;;;3.80;2.10;;;;;;;;;;5067721;28;20501;-79
2023/11/26 09:28:39;;;;;;;2.63;1.85;;;;;;;;;;5067202;28;20869;-79
2023/11/26 09:31:06;;;;;;;2.92;2.10;;;;;;;;;;5066493;28;20373;-78
2023/11/26 09:33:32;;;;;;;3.78;2.10;;;;;;;;;;5065762;28;20381;-79
2023/11/26 09:35:58;;;;;;;3.38;2.70;;;;;;;;;;5067059;28;20790;-79
2023/11/26 09:38:24;;;;;;;3.53;2.50;;;;;;;;;;5067183;28;20600;-78
2023/11/26 09:40:50;;;;;;;3.33;2.67;;;;;;;;;;5065890;28;20397;-78
2023/11/26 09:43:16;;;;;;;3.70;2.28;;;;;;;;;;5064737;28;20399;-80
2023/11/26 09:45:45;;;;;;;4.05;3.00;;;;;;;;;;5066065;28;20412;-78
2023/11/26 09:48:11;;;;;;;3.60;2.03;;;;;;;;;;5066016;28;20480;-78
2023/11/26 09:50:37;;;;;;;3.58;1.73;;;;;;;;;;5066298;28;20377;-78
2023/11/26 09:53:03;;;;;;;2.85;1.67;;;;;;;;;;5066358;28;20381;-78
2023/11/26 09:55:37;;;;;;;2.03;1.50;;;;;;;;;;5065699;28;20384;-79
2023/11/26 09:58:03;;;;;;;1.50;1.35;;;;;;;;;;5066300;28;20392;-78
2023/11/26 10:00:30;;;;;;;1.70;1.50;;;;;;;;;;5065730;28;20887;-80
2023/11/26 10:03:01;;;;;;;2.75;1.70;;;;;;;;;;5066225;28;20778;-79
2023/11/26 10:05:27;;;;;;;1.70;1.60;;;;;;;;;;5066103;28;20385;-79
2023/11/26 10:07:54;;;;;;;3.42;1.77;;;;;;;;;;5065597;28;20431;-79
2023/11/26 10:10:21;;;;;;;2.03;1.70;;;;;;;;;;5066657;28;20408;-79
2023/11/26 10:12:53;;;;;;;2.70;1.75;;;;;;;;;;5060680;28;20843;-79
2023/11/26 10:15:23;;;;;;;1.85;1.48;;;;;;;;;;5065611;28;20436;-79
2023/11/26 10:18:06;;;;;;;2.35;1.63;;;;;;;;;;5066413;28;20426;-79
2023/11/26 10:20:33;;;;;;;2.83;1.40;;;;;;;;;;5078671;28;20888;-79
2023/11/26 10:22:59;;;;;;;3.23;1.93;;;;;;;;;;5085603;28;20847;-79
2023/11/26 10:25:25;;;;;;;2.67;1.75;;;;;;;;;;5085735;28;20383;-79
2023/11/26 10:27:52;;;;;;;2.47;2.23;;;;;;;;;;5085083;28;20403;-79
2023/11/26 10:30:25;;;;;;;2.50;1.80;;;;;;;;;;5085595;28;20463;-79
2023/11/26 10:33:04;;;;;;;1.83;1.60;;;;;;;;;;5085613;28;20420;-79
2023/11/26 10:35:46;;;;;;;2.28;1.88;;;;;;;;;;5079746;28;20814;-79
2023/11/26 10:38:13;;;;;;;2.63;1.92;;;;;;;;;;5073463;28;20489;-79
2023/11/26 10:40:39;;;;;;;2.58;1.70;;;;;;;;;;5100796;28;20393;-80
2023/11/26 10:43:08;;;;;;;1.85;1.70;;;;;;;;;;5091806;28;20382;-80
2023/11/26 10:45:34;;;;;;;2.50;2.08;;;;;;;;;;5089659;28;20430;-80
2023/11/26 10:48:05;;;;;;;2.28;1.80;;;;;;;;;;5087366;28;20418;-81
2023/11/26 10:50:33;;;;;;;2.65;1.60;;;;;;;;;;5087020;28;20419;-80
2023/11/26 10:53:00;;;;;;;2.13;1.90;;;;;;;;;;5081023;28;20422;-79
2023/11/26 10:55:37;;;;;;;4.40;1.90;;;;;;;;;;5076653;28;20383;-81
2023/11/26 10:58:07;;;;;;;3.20;2.00;;;;;;;;;;5084902;28;20825;-81
2023/11/26 11:00:34;;;;;;;2.58;1.80;;;;;;;;;;5085386;28;20845;-79
2023/11/26 11:03:03;;;;;;;2.47;2.28;;;;;;;;;;5086118;28;20482;-79
2023/11/26 11:05:30;;;;;;;2.33;1.83;;;;;;;;;;5085441;28;20975;-80
2023/11/26 11:07:59;;;;;;;2.22;1.88;;;;;;;;;;5081749;28;20439;-80
2023/11/26 11:10:35;;;;;;;2.47;1.67;;;;;;;;;;5085209;28;20442;-80
2023/11/26 11:13:04;;;;;;;3.53;2.28;;;;;;;;;;5084084;28;20491;-79
2023/11/26 11:15:30;;;;;;;1.63;1.50;;;;;;;;;;5083453;28;20470;-79
2023/11/26 11:17:56;;;;;;;2.75;1.50;;;;;;;;;;5082753;28;20379;-79
2023/11/26 11:20:42;;;;;;;3.17;1.80;;;;;;;;;;5082036;28;20413;-80
2023/11/26 11:23:28;;;;;;;3.35;2.00;;;;;;;;;;5063777;28;20446;-79
2023/11/26 11:25:57;;;;;;;1.90;1.77;;;;;;;;;;5068679;28;20443;-79
2023/11/26 11:28:35;;;;;;;2.10;1.60;;;;;;;;;;5061810;28;20420;-80
2023/11/26 11:31:01;;;;;;;2.00;1.40;;;;;;;;;;5062023;28;20766;-79
2023/11/26 11:33:27;;;;;;;3.00;1.38;;;;;;;;;;5063612;28;20404;-80
2023/11/26 11:35:53;;;;;;;2.55;1.83;;;;;;;;;;5062453;28;20381;-79
2023/11/26 11:38:20;;;;;;;2.25;1.40;;;;;;;;;;5062421;28;20385;-82
2023/11/26 11:41:08;;;;;;;2.73;1.53;;;;;;;;;;5062172;28;20411;-80
2023/11/26 11:43:34;;;;;;;2.80;1.65;;;;;;;;;;5061335;28;20477;-80
2023/11/26 11:46:00;;;;;;;3.05;1.80;;;;;;;;;;5061260;28;20401;-80
2023/11/26 11:48:52;;;;;;;2.40;1.55;;;;;;;;;;5061734;28;20458;-79
2023/11/26 11:51:31;;;;;;;2.40;1.55;;;;;;;;;;5058112;28;20446;-80
2023/11/26 11:54:09;;;;;;;2.17;1.40;;;;;;;;;;5062058;28;20373;-79
2023/11/26 11:56:39;;;;;;;2.08;1.13;;;;;;;;;;5070478;28;20395;-79
2023/11/26 11:59:05;;;;;;;2.08;1.30;;;;;;;;;;5071578;28;20445;-79
2023/11/26 12:01:33;;;;;;;1.65;1.10;;;;;;;;;;5068754;28;20411;-80
2023/11/26 12:04:01;;;;;;;2.30;1.38;;;;;;;;;;5072263;28;20735;-79
2023/11/26 12:06:28;;;;;;;2.53;1.30;;;;;;;;;;5072449;28;20407;-79
2023/11/26 12:08:55;;;;;;;1.70;1.17;;;;;;;;;;5071727;28;20413;-79
2023/11/26 12:11:21;;;;;;;2.33;1.33;;;;;;;;;;5070657;28;20389;-79
2023/11/26 12:13:47;;;;;;;1.85;1.30;;;;;;;;;;5071206;28;20383;-79
2023/11/26 12:16:13;;;;;;;1.98;1.50;;;;;;;;;;5070873;28;20386;-80
2023/11/26 12:18:39;;;;;;;2.25;1.45;;;;;;;;;;5072868;28;20388;-79
2023/11/26 12:21:05;;;;;;;1.40;1.15;;;;;;;;;;5065483;28;20408;-79
2023/11/26 12:23:33;;;;;;;1.75;1.10;;;;;;;;;;5058792;28;20377;-80
2023/11/26 12:25:59;;;;;;;3.70;1.48;;;;;;;;;;5057004;28;20381;-80
2023/11/26 12:28:25;;;;;;;1.50;1.27;;;;;;;;;;5061939;28;20407;-79
2023/11/26 12:30:55;;;;;;;1.60;1.30;;;;;;;;;;5081598;28;20871;-79
2023/11/26 12:33:21;;;;;;;1.92;1.30;;;;;;;;;;5080945;28;20372;-79
2023/11/26 12:35:48;;;;;;;2.50;1.30;;;;;;;;;;5080205;28;20444;-79
2023/11/26 12:38:15;;;;;;;1.58;1.15;;;;;;;;;;5081460;28;20414;-80
2023/11/26 12:40:41;;;;;;;2.57;1.00;;;;;;;;;;5081754;28;20375;-79
2023/11/26 12:43:07;;;;;;;2.60;1.17;;;;;;;;;;5080538;28;20412;-79
2023/11/26 12:45:34;;;;;;;2.67;1.00;;;;;;;;;;5079314;28;20410;-79
2023/11/26 12:48:00;;;;;;;1.50;0.98;;;;;;;;;;5078126;28;20419;-80
2023/11/26 12:50:44;;;;;;;3.03;1.17;;;;;;;;;;5073249;28;20423;-80
2023/11/26 12:53:15;;;;;;;1.60;1.00;;;;;;;;;;5040328;28;20400;-80
2023/11/26 12:55:45;;;;;;;3.08;1.38;;;;;;;;;;5054174;28;20434;-79
2023/11/26 12:58:22;;;;;;;1.80;0.90;;;;;;;;;;5064411;28;20702;-79
2023/11/26 13:00:48;;;;;;;1.13;0.80;;;;;;;;;;5065536;28;20422;-80
2023/11/26 13:03:20;;;;;;;1.58;0.90;;;;;;;;;;5054474;28;20881;-80
2023/11/26 13:05:47;;;;;;;1.27;0.90;;;;;;;;;;5053771;28;20931;-79
2023/11/26 13:08:25;;;;;;;2.40;1.10;;;;;;;;;;5053342;28;20439;-80
2023/11/26 13:10:57;;;;;;;1.42;0.95;;;;;;;;;;5055273;28;20481;-80
2023/11/26 13:13:28;;;;;;;1.73;1.20;;;;;;;;;;5074496;28;20414;-80
2023/11/26 13:15:56;;;;;;;1.70;1.13;;;;;;;;;;5073577;28;20375;-79
2023/11/26 13:18:22;;;;;;;2.35;1.40;;;;;;;;;;5073655;28;20896;-79
2023/11/26 13:20:49;;;;;;;2.13;1.00;;;;;;;;;;5074537;28;20384;-80
2023/11/26 13:23:15;;;;;;;2.00;1.20;;;;;;;;;;5074225;28;20386;-80
2023/11/26 13:25:42;;;;;;;1.27;1.00;;;;;;;;;;5074523;28;20380;-79
2023/11/26 13:28:08;;;;;;;1.73;1.08;;;;;;;;;;5075073;28;20399;-79
2023/11/26 13:30:40;;;;;;;1.75;1.13;;;;;;;;;;5075803;28;20406;-79
2023/11/26 13:33:08;;;;;;;1.52;0.95;;;;;;;;;;5068400;28;20377;-80
2023/11/26 13:35:38;;;;;;;1.95;1.10;;;;;;;;;;5036806;28;20386;-80
2023/11/26 13:38:04;;;;;;;1.90;1.20;;;;;;;;;;5055716;28;20529;-80
2023/11/26 13:40:31;;;;;;;2.22;1.13;;;;;;;;;;5063887;28;20421;-79
2023/11/26 13:42:57;;;;;;;1.48;1.10;;;;;;;;;;5074711;28;20940;-79
2023/11/26 13:45:24;;;;;;;1.23;1.00;;;;;;;;;;5066276;28;20412;-79
2023/11/26 13:47:50;;;;;;;1.85;1.20;;;;;;;;;;5068400;28;20431;-79
2023/11/26 13:50:16;;;;;;;1.75;1.40;;;;;;;;;;5074924;28;20388;-79
2023/11/26 13:52:42;;;;;;;3.40;1.67;;;;;;;;;;5062037;28;20460;-80
2023/11/26 13:55:08;;;;;;;2.53;1.60;;;;;;;;;;5075214;28;20463;-80
2023/11/26 13:57:36;;;;;;;2.33;1.35;;;;;;;;;;5070023;28;20367;-79
2023/11/26 14:00:03;;;;;;;3.30;1.90;;;;;;;;;;5078496;28;20395;-80
2023/11/26 14:02:30;;;;;;;3.10;1.80;;;;;;;;;;5078053;28;20394;-80
2023/11/26 14:04:57;;;;;;;2.10;1.60;;;;;;;;;;5078445;28;20470;-80
2023/11/26 14:07:24;;;;;;;2.17;1.70;;;;;;;;;;5077545;28;20473;-79
2023/11/26 14:09:51;;;;;;;1.70;1.27;;;;;;;;;;5070124;28;20407;-79
2023/11/26 14:12:16;;;;;;;2.17;1.65;;;;;;;;;;5074008;28;20379;-79
2023/11/26 14:14:42;;;;;;;1.90;1.40;;;;;;;;;;5077605;28;20384;-79
2023/11/26 14:17:10;;;;;;;1.55;1.15;;;;;;;;;;5067222;28;20468;-80
2023/11/26 14:19:37;;;;;;;2.10;1.07;;;;;;;;;;5071218;28;20428;-79
2023/11/26 14:22:04;;;;;;;2.03;1.30;;;;;;;;;;5071149;28;20421;-79
2023/11/26 14:24:30;;;;;;;1.33;1.00;;;;;;;;;;5069197;28;20388;-80
2023/11/26 14:26:59;;;;;;;2.00;1.10;;;;;;;;;;5071535;28;20411;-82
2023/11/26 14:29:26;;;;;;;2.50;1.10;;;;;;;;;;5065873;28;20481;-80
2023/11/26 14:31:52;;;;;;;1.23;1.10;;;;;;;;;;5070853;28;20380;-80
2023/11/26 14:34:18;;;;;;;1.90;1.30;;;;;;;;;;5076655;28;20380;-79
2023/11/26 14:36:46;;;;;;;2.83;1.30;;;;;;;;;;5063837;28;20402;-79
2023/11/26 14:39:12;;;;;;;2.33;1.55;;;;;;;;;;5079212;28;20391;-79
2023/11/26 14:41:38;;;;;;;2.03;1.48;;;;;;;;;;5072352;28;20381;-79
2023/11/26 14:44:05;;;;;;;2.97;1.60;;;;;;;;;;5076783;28;20379;-79
2023/11/26 14:46:31;;;;;;;2.50;1.80;;;;;;;;;;5063190;28;20504;-80